»·PEaware :: N74TS KSBP-KMRY

N74TS :: KSBP-KMRY

FLIGHT INFORMATION

Flight Status: Arrived
Operator: Privately registered:
United States
More flights under this callsign
Pilot: Matteo M. (13094)
Aircraft: BELL TEXTRON MODEL 412
(B412)
More flights by this aircraft type
Origin: KSBP San Luis Co Regl
United States
Destination: KMRY Monterey Peninsula
United States
More flights between these airports :: More routes between these airports
Route: +CREPE3 PRB V248 SMS
File this flight plan on PilotEdge
Remarks: crepe3
Altitude:
(Current/Filed)
6,000ft
Speed:
(Current/Filed)
130kts
Departed: 07-Oct-18 07:16 PM
Arrived: 07-Oct-18 08:26 PM
Distance/Time
Traveled:
100nm/1:10
Distance/Time
To Go:
Arrived

Flight Plot

Page will automatically refresh every two minutes.

Flight plan parsing failed; only flown route is shown


Map Options




Map Legend


Flown Route
Filed Route
Departure Airport
Arrival Airport
Navaid (VOR, NDB)
Fix

Horizontal Profiles

Position Reports

Time Latitude Longitude Heading Altitude Ground
Speed
07-Oct-18 18:53 35.234435 -120.632976 304 188ft 0kts
07-Oct-18 18:54 35.234435 -120.632976 304 188ft 0kts
07-Oct-18 18:55 35.234435 -120.632976 304 188ft 0kts
07-Oct-18 18:56 35.234435 -120.632976 304 188ft 0kts
07-Oct-18 18:57 35.234435 -120.632976 304 188ft 0kts
07-Oct-18 18:58 35.234435 -120.632976 304 188ft 0kts
07-Oct-18 18:59 35.234435 -120.632976 304 188ft 0kts
07-Oct-18 19:00 35.234435 -120.632976 304 188ft 0kts
07-Oct-18 19:01 35.234435 -120.632976 304 188ft 0kts
07-Oct-18 19:02 35.234435 -120.632976 304 188ft 0kts
07-Oct-18 19:03 35.234435 -120.632976 304 188ft 0kts
07-Oct-18 19:04 35.234435 -120.632976 304 188ft 0kts
07-Oct-18 19:05 35.234435 -120.632976 304 188ft 0kts
07-Oct-18 19:06 35.234435 -120.632976 304 188ft 0kts
07-Oct-18 19:07 35.234435 -120.632976 304 188ft 0kts
07-Oct-18 19:08 35.234435 -120.632976 304 188ft 0kts
07-Oct-18 19:09 35.234435 -120.632976 304 188ft 0kts
07-Oct-18 19:10 35.234435 -120.632976 304 188ft 0kts
07-Oct-18 19:11 35.234435 -120.632976 304 188ft 0kts
07-Oct-18 19:12 35.234435 -120.632976 304 188ft 0kts
07-Oct-18 19:13 35.234435 -120.632976 304 188ft 0kts
07-Oct-18 19:14 35.234435 -120.632977 305 188ft 0kts
07-Oct-18 19:15 35.233898 -120.633065 127 192ft 7kts
07-Oct-18 19:16 35.233484 -120.631859 204 209ft 2kts
07-Oct-18 19:17 35.233139 -120.632450 212 196ft 4kts
07-Oct-18 19:18 35.239500 -120.644590 295 601ft 62kts
07-Oct-18 19:19 35.247585 -120.660170 304 1406ft 57kts
07-Oct-18 19:20 35.255438 -120.677443 296 2163ft 59kts
07-Oct-18 19:21 35.263079 -120.694930 312 2867ft 58kts
07-Oct-18 19:22 35.273128 -120.710383 303 3587ft 58kts
07-Oct-18 19:23 35.281645 -120.727170 307 4308ft 58kts
07-Oct-18 19:24 35.290338 -120.743866 308 5028ft 58kts
07-Oct-18 19:25 35.300388 -120.759681 309 5747ft 61kts
07-Oct-18 19:26 35.311167 -120.775157 307 6030ft 57kts
07-Oct-18 19:27 35.322402 -120.791700 311 5954ft 121kts
07-Oct-18 19:28 35.343270 -120.829526 305 5998ft 113kts
07-Oct-18 19:29 35.360187 -120.854117 316 5989ft 115kts
07-Oct-18 19:30 35.394162 -120.846865 27 6014ft 125kts
07-Oct-18 19:31 35.417476 -120.825057 33 5993ft 127kts
07-Oct-18 19:32 35.446460 -120.799102 28 5956ft 132kts
07-Oct-18 19:33 35.477134 -120.779195 33 5961ft 125kts
07-Oct-18 19:34 35.507192 -120.755526 35 5988ft 128kts
07-Oct-18 19:35 35.537190 -120.732029 33 5983ft 126kts
07-Oct-18 19:36 35.567029 -120.709059 33 5992ft 125kts
07-Oct-18 19:37 35.597198 -120.686685 31 5982ft 126kts
07-Oct-18 19:38 35.626461 -120.663343 33 5972ft 125kts
07-Oct-18 19:39 35.656086 -120.640386 32 5986ft 126kts
07-Oct-18 19:40 35.690270 -120.638292 345 5988ft 138kts
07-Oct-18 19:41 35.724265 -120.652859 346 5975ft 127kts
07-Oct-18 19:42 35.758157 -120.662576 352 5983ft 125kts
07-Oct-18 19:43 35.792284 -120.667016 345 5981ft 126kts
07-Oct-18 19:44 35.823297 -120.685811 328 5972ft 130kts
07-Oct-18 19:45 35.855556 -120.702974 344 5975ft 127kts
07-Oct-18 19:46 35.888821 -120.716988 344 5986ft 125kts
07-Oct-18 19:47 35.921926 -120.730612 344 5975ft 126kts
07-Oct-18 19:48 35.956154 -120.743994 345 5984ft 134kts
07-Oct-18 19:49 35.991603 -120.757787 344 5973ft 134kts
07-Oct-18 19:50 36.026797 -120.771887 344 5972ft 132kts
07-Oct-18 19:51 36.061111 -120.785778 344 5975ft 129kts
07-Oct-18 19:52 36.091363 -120.806268 315 5974ft 130kts
07-Oct-18 19:53 36.115493 -120.838965 315 5993ft 127kts
07-Oct-18 19:54 36.139674 -120.870671 315 5990ft 125kts
07-Oct-18 19:55 36.163614 -120.901578 315 5985ft 123kts
07-Oct-18 19:56 36.187506 -120.932286 315 5977ft 124kts
07-Oct-18 19:57 36.210796 -120.964136 313 5991ft 124kts
07-Oct-18 19:58 36.233373 -120.996467 313 5994ft 123kts
07-Oct-18 19:59 36.255745 -121.028430 313 5988ft 122kts
07-Oct-18 20:00 36.278029 -121.059996 314 5994ft 121kts
07-Oct-18 20:01 36.300303 -121.091419 314 5994ft 119kts
07-Oct-18 20:02 36.322405 -121.122604 314 5979ft 118kts
07-Oct-18 20:03 36.341828 -121.151491 314 5978ft 99kts
07-Oct-18 20:04 36.358600 -121.177704 316 5957ft 96kts
07-Oct-18 20:05 36.376850 -121.201951 318 5966ft 96kts
07-Oct-18 20:06 36.393730 -121.224167 319 5953ft 83kts
07-Oct-18 20:07 36.409884 -121.245396 320 5974ft 85kts
07-Oct-18 20:08 36.426243 -121.266538 318 5957ft 84kts
07-Oct-18 20:09 36.441887 -121.288596 317 5963ft 85kts
07-Oct-18 20:10 36.454297 -121.313162 278 5963ft 93kts
07-Oct-18 20:11 36.452284 -121.346305 275 5965ft 96kts
07-Oct-18 20:12 36.449315 -121.379491 279 5969ft 95kts
07-Oct-18 20:13 36.451454 -121.411582 287 5979ft 91kts
07-Oct-18 20:14 36.453681 -121.443428 270 5970ft 95kts
07-Oct-18 20:15 36.459155 -121.473507 303 5979ft 89kts
07-Oct-18 20:16 36.469225 -121.501481 302 5949ft 88kts
07-Oct-18 20:17 36.479044 -121.529958 302 5534ft 89kts
07-Oct-18 20:18 36.489311 -121.558563 300 5305ft 90kts
07-Oct-18 20:19 36.499038 -121.587481 301 4886ft 89kts
07-Oct-18 20:20 36.509014 -121.616447 300 4417ft 90kts
07-Oct-18 20:21 36.519118 -121.645659 299 3821ft 92kts
07-Oct-18 20:22 36.529058 -121.674930 298 3116ft 91kts
07-Oct-18 20:23 36.539243 -121.704424 296 2778ft 93kts
07-Oct-18 20:24 36.549323 -121.733921 295 2218ft 93kts
07-Oct-18 20:25 36.559514 -121.763436 293 1759ft 94kts
07-Oct-18 20:26 36.571319 -121.797212 289 992ft 97kts
07-Oct-18 20:27 36.580009 -121.823656 290 452ft 70kts
07-Oct-18 20:28 36.585572 -121.840195 286 178ft 20kts
07-Oct-18 20:29 36.585498 -121.843290 231 178ft 7kts
07-Oct-18 20:30 36.584868 -121.843760 3 172ft 0kts
07-Oct-18 20:31 36.584868 -121.843760 3 172ft 0kts

Navigation Log

Ident Type
Flight plan parsing failed, navigation log unavailable